<?xml version="1.0" encoding="utf-8"?>
<gpx xmlns:xsi="http://www.w3.org/2001/XMLSchema-instance" xmlns:xsd="http://www.w3.org/2001/XMLSchema" version="1.1" creator="Shapelink.com" xmlns="http://www.topografix.com/GPX/1/1" xmlns:gpxtpx="http://www.garmin.com/xmlschemas/TrackPointExtension/v1">
  <metadata>
    <name>Övrigt 3.75 km, 2019-05-01</name>
    <desc></desc>
    <author><name>Marian Moron</name></author> 
    <time>2019-05-01T18:39:29Z</time>
  </metadata>
  <trk>
    <name>Övrigt 3.75 km, 2019-05-01</name>
    <trkseg>
      <trkpt lat="51.229827046625" lon="4.45796213002">
        <ele>0</ele>
        <time>2019-05-01T18:39:29Z</time>
      </trkpt>
      <trkpt lat="51.229983201422" lon="4.458361443736">
        <ele>0</ele>
        <time>2019-05-01T18:39:38Z</time>
      </trkpt>
      <trkpt lat="51.230147151386" lon="4.458619773894">
        <ele>0</ele>
        <time>2019-05-01T18:40:23Z</time>
      </trkpt>
      <trkpt lat="51.230142289884" lon="4.458709460224">
        <ele>0</ele>
        <time>2019-05-01T18:40:34Z</time>
      </trkpt>
      <trkpt lat="51.230193587112" lon="4.458716081925">
        <ele>0</ele>
        <time>2019-05-01T18:40:49Z</time>
      </trkpt>
      <trkpt lat="51.230249745842" lon="4.458653552951">
        <ele>0</ele>
        <time>2019-05-01T18:40:57Z</time>
      </trkpt>
      <trkpt lat="51.230399614214" lon="4.458570991236">
        <ele>0</ele>
        <time>2019-05-01T18:41:14Z</time>
      </trkpt>
      <trkpt lat="51.230472452925" lon="4.458625305948">
        <ele>0</ele>
        <time>2019-05-01T18:41:22Z</time>
      </trkpt>
      <trkpt lat="51.230546465102" lon="4.4589277249">
        <ele>0</ele>
        <time>2019-05-01T18:41:59Z</time>
      </trkpt>
      <trkpt lat="51.230528695474" lon="4.459069211372">
        <ele>0</ele>
        <time>2019-05-01T18:42:11Z</time>
      </trkpt>
      <trkpt lat="51.230565156739" lon="4.459355620895">
        <ele>0</ele>
        <time>2019-05-01T18:42:45Z</time>
      </trkpt>
      <trkpt lat="51.230589631887" lon="4.459638090925">
        <ele>0</ele>
        <time>2019-05-01T18:43:08Z</time>
      </trkpt>
      <trkpt lat="51.230660794218" lon="4.459749821652">
        <ele>0</ele>
        <time>2019-05-01T18:43:20Z</time>
      </trkpt>
      <trkpt lat="51.230732794739" lon="4.459717551337">
        <ele>0</ele>
        <time>2019-05-01T18:43:31Z</time>
      </trkpt>
      <trkpt lat="51.230826755838" lon="4.45972903454">
        <ele>0</ele>
        <time>2019-05-01T18:43:41Z</time>
      </trkpt>
      <trkpt lat="51.23115934963" lon="4.45989331978">
        <ele>0</ele>
        <time>2019-05-01T18:44:24Z</time>
      </trkpt>
      <trkpt lat="51.231192290497" lon="4.4598832615">
        <ele>0</ele>
        <time>2019-05-01T18:44:36Z</time>
      </trkpt>
      <trkpt lat="51.231166390426" lon="4.459766166357">
        <ele>0</ele>
        <time>2019-05-01T18:44:44Z</time>
      </trkpt>
      <trkpt lat="51.23117778981" lon="4.459662146978">
        <ele>0</ele>
        <time>2019-05-01T18:44:49Z</time>
      </trkpt>
      <trkpt lat="51.23135380971" lon="4.459607580809">
        <ele>0</ele>
        <time>2019-05-01T18:45:04Z</time>
      </trkpt>
      <trkpt lat="51.231434862683" lon="4.459617806727">
        <ele>0</ele>
        <time>2019-05-01T18:45:11Z</time>
      </trkpt>
      <trkpt lat="51.23163795612" lon="4.45963012812">
        <ele>0</ele>
        <time>2019-05-01T18:45:31Z</time>
      </trkpt>
      <trkpt lat="51.23167902743" lon="4.459665164462">
        <ele>0</ele>
        <time>2019-05-01T18:45:35Z</time>
      </trkpt>
      <trkpt lat="51.231724373509" lon="4.459802459984">
        <ele>0</ele>
        <time>2019-05-01T18:45:43Z</time>
      </trkpt>
      <trkpt lat="51.231765193362" lon="4.459894577065">
        <ele>2.2</ele>
        <time>2019-05-01T18:45:52Z</time>
      </trkpt>
      <trkpt lat="51.231868793646" lon="4.460318030653">
        <ele>12.6</ele>
        <time>2019-05-01T18:46:25Z</time>
      </trkpt>
      <trkpt lat="51.231908020938" lon="4.460556495708">
        <ele>8.2</ele>
        <time>2019-05-01T18:46:50Z</time>
      </trkpt>
      <trkpt lat="51.232004161331" lon="4.460858327927">
        <ele>4</ele>
        <time>2019-05-01T18:48:28Z</time>
      </trkpt>
      <trkpt lat="51.232024948443" lon="4.460853214968">
        <ele>4.8</ele>
        <time>2019-05-01T18:48:30Z</time>
      </trkpt>
      <trkpt lat="51.232049172134" lon="4.460901075617">
        <ele>4.6</ele>
        <time>2019-05-01T18:48:34Z</time>
      </trkpt>
      <trkpt lat="51.232074904567" lon="4.46105588931">
        <ele>5</ele>
        <time>2019-05-01T18:48:47Z</time>
      </trkpt>
      <trkpt lat="51.232107258701" lon="4.46138697436">
        <ele>15.8</ele>
        <time>2019-05-01T18:49:05Z</time>
      </trkpt>
      <trkpt lat="51.232359889167" lon="4.461533909067">
        <ele>21</ele>
        <time>2019-05-01T18:49:39Z</time>
      </trkpt>
      <trkpt lat="51.232455610465" lon="4.461482276563">
        <ele>18.8</ele>
        <time>2019-05-01T18:49:49Z</time>
      </trkpt>
      <trkpt lat="51.232496011223" lon="4.461483198572">
        <ele>17.2</ele>
        <time>2019-05-01T18:49:53Z</time>
      </trkpt>
      <trkpt lat="51.232508584073" lon="4.461525694805">
        <ele>16.4</ele>
        <time>2019-05-01T18:49:56Z</time>
      </trkpt>
      <trkpt lat="51.232554349247" lon="4.461711270071">
        <ele>14.2</ele>
        <time>2019-05-01T18:50:07Z</time>
      </trkpt>
      <trkpt lat="51.232646801604" lon="4.461806991369">
        <ele>10.4</ele>
        <time>2019-05-01T18:50:16Z</time>
      </trkpt>
      <trkpt lat="51.232672450218" lon="4.461820905323">
        <ele>9.2</ele>
        <time>2019-05-01T18:50:19Z</time>
      </trkpt>
      <trkpt lat="51.232827850644" lon="4.46189827026">
        <ele>8.6</ele>
        <time>2019-05-01T18:50:38Z</time>
      </trkpt>
      <trkpt lat="51.233035637945" lon="4.461846470118">
        <ele>3</ele>
        <time>2019-05-01T18:50:59Z</time>
      </trkpt>
      <trkpt lat="51.233144099731" lon="4.461789054103">
        <ele>3</ele>
        <time>2019-05-01T18:51:11Z</time>
      </trkpt>
      <trkpt lat="51.233202689212" lon="4.461940012122">
        <ele>3</ele>
        <time>2019-05-01T18:51:19Z</time>
      </trkpt>
      <trkpt lat="51.233201264289" lon="4.461999439793">
        <ele>2.8</ele>
        <time>2019-05-01T18:51:21Z</time>
      </trkpt>
      <trkpt lat="51.233190786914" lon="4.462066243536">
        <ele>3</ele>
        <time>2019-05-01T18:51:24Z</time>
      </trkpt>
      <trkpt lat="51.233234791889" lon="4.46224025178">
        <ele>1.6</ele>
        <time>2019-05-01T18:51:42Z</time>
      </trkpt>
      <trkpt lat="51.233342331666" lon="4.462807371134">
        <ele>0</ele>
        <time>2019-05-01T18:52:14Z</time>
      </trkpt>
      <trkpt lat="51.233381894234" lon="4.463130158103">
        <ele>0.2</ele>
        <time>2019-05-01T18:52:31Z</time>
      </trkpt>
      <trkpt lat="51.233418606956" lon="4.463285977624">
        <ele>0</ele>
        <time>2019-05-01T18:52:43Z</time>
      </trkpt>
      <trkpt lat="51.233434113471" lon="4.463533830407">
        <ele>0</ele>
        <time>2019-05-01T18:52:55Z</time>
      </trkpt>
      <trkpt lat="51.233442746828" lon="4.463638101243">
        <ele>0</ele>
        <time>2019-05-01T18:53:06Z</time>
      </trkpt>
      <trkpt lat="51.233460348818" lon="4.463802554121">
        <ele>0</ele>
        <time>2019-05-01T18:53:16Z</time>
      </trkpt>
      <trkpt lat="51.233445177579" lon="4.463916715599">
        <ele>0</ele>
        <time>2019-05-01T18:53:25Z</time>
      </trkpt>
      <trkpt lat="51.233457415153" lon="4.464088293092">
        <ele>0</ele>
        <time>2019-05-01T18:53:32Z</time>
      </trkpt>
      <trkpt lat="51.233366471538" lon="4.464389454759">
        <ele>0</ele>
        <time>2019-05-01T18:53:56Z</time>
      </trkpt>
      <trkpt lat="51.233292375542" lon="4.464523984254">
        <ele>0</ele>
        <time>2019-05-01T18:54:04Z</time>
      </trkpt>
      <trkpt lat="51.233278964502" lon="4.464553488542">
        <ele>0</ele>
        <time>2019-05-01T18:54:06Z</time>
      </trkpt>
      <trkpt lat="51.233252142422" lon="4.46467435554">
        <ele>0</ele>
        <time>2019-05-01T18:54:16Z</time>
      </trkpt>
      <trkpt lat="51.233160444436" lon="4.464877365158">
        <ele>0</ele>
        <time>2019-05-01T18:54:33Z</time>
      </trkpt>
      <trkpt lat="51.233058269075" lon="4.465101748621">
        <ele>0</ele>
        <time>2019-05-01T18:54:45Z</time>
      </trkpt>
      <trkpt lat="51.233005798381" lon="4.465322527867">
        <ele>0</ele>
        <time>2019-05-01T18:55:05Z</time>
      </trkpt>
      <trkpt lat="51.232848721575" lon="4.46562570119">
        <ele>0</ele>
        <time>2019-05-01T18:55:34Z</time>
      </trkpt>
      <trkpt lat="51.232663397766" lon="4.465869949756">
        <ele>9</ele>
        <time>2019-05-01T18:56:12Z</time>
      </trkpt>
      <trkpt lat="51.232440020131" lon="4.466492808745">
        <ele>1.6</ele>
        <time>2019-05-01T18:56:53Z</time>
      </trkpt>
      <trkpt lat="51.232410348205" lon="4.466551817321">
        <ele>0.4</ele>
        <time>2019-05-01T18:56:57Z</time>
      </trkpt>
      <trkpt lat="51.232225275853" lon="4.466936043617">
        <ele>0.2</ele>
        <time>2019-05-01T18:57:22Z</time>
      </trkpt>
      <trkpt lat="51.232149084382" lon="4.467190853377">
        <ele>0</ele>
        <time>2019-05-01T18:57:37Z</time>
      </trkpt>
      <trkpt lat="51.232158220653" lon="4.46731968318">
        <ele>0</ele>
        <time>2019-05-01T18:57:43Z</time>
      </trkpt>
      <trkpt lat="51.232407582178" lon="4.467939859961">
        <ele>15.4</ele>
        <time>2019-05-01T18:58:20Z</time>
      </trkpt>
      <trkpt lat="51.232482097269" lon="4.468121579553">
        <ele>20.6</ele>
        <time>2019-05-01T18:58:32Z</time>
      </trkpt>
      <trkpt lat="51.23272592674" lon="4.468724070525">
        <ele>25</ele>
        <time>2019-05-01T18:59:09Z</time>
      </trkpt>
      <trkpt lat="51.232867497031" lon="4.469142075878">
        <ele>37.8</ele>
        <time>2019-05-01T18:59:32Z</time>
      </trkpt>
      <trkpt lat="51.233034715936" lon="4.469341900374">
        <ele>15.4</ele>
        <time>2019-05-01T18:59:54Z</time>
      </trkpt>
      <trkpt lat="51.233214340053" lon="4.46978731454">
        <ele>2</ele>
        <time>2019-05-01T19:00:19Z</time>
      </trkpt>
      <trkpt lat="51.233249376395" lon="4.469854202102">
        <ele>1.4</ele>
        <time>2019-05-01T19:00:25Z</time>
      </trkpt>
      <trkpt lat="51.233395137636" lon="4.470120746522">
        <ele>0</ele>
        <time>2019-05-01T19:01:29Z</time>
      </trkpt>
      <trkpt lat="51.233621029841" lon="4.470518886772">
        <ele>0</ele>
        <time>2019-05-01T19:02:04Z</time>
      </trkpt>
      <trkpt lat="51.233705938488" lon="4.470770846686">
        <ele>0</ele>
        <time>2019-05-01T19:02:25Z</time>
      </trkpt>
      <trkpt lat="51.233772155498" lon="4.470931360071">
        <ele>0</ele>
        <time>2019-05-01T19:02:39Z</time>
      </trkpt>
      <trkpt lat="51.233869804633" lon="4.471145517616">
        <ele>1</ele>
        <time>2019-05-01T19:02:56Z</time>
      </trkpt>
      <trkpt lat="51.234006932517" lon="4.471470232422">
        <ele>4.4</ele>
        <time>2019-05-01T19:03:26Z</time>
      </trkpt>
      <trkpt lat="51.234150095369" lon="4.47174029724">
        <ele>3.8</ele>
        <time>2019-05-01T19:03:44Z</time>
      </trkpt>
      <trkpt lat="51.234357966489" lon="4.472245558172">
        <ele>1.4</ele>
        <time>2019-05-01T19:04:16Z</time>
      </trkpt>
      <trkpt lat="51.234443713326" lon="4.472349409913">
        <ele>2.8</ele>
        <time>2019-05-01T19:04:46Z</time>
      </trkpt>
      <trkpt lat="51.234458800746" lon="4.472390900318">
        <ele>3</ele>
        <time>2019-05-01T19:04:48Z</time>
      </trkpt>
      <trkpt lat="51.234610932231" lon="4.473045694346">
        <ele>3.4</ele>
        <time>2019-05-01T19:05:23Z</time>
      </trkpt>
      <trkpt lat="51.234632725171" lon="4.473235209105">
        <ele>4.2</ele>
        <time>2019-05-01T19:05:42Z</time>
      </trkpt>
      <trkpt lat="51.234418986721" lon="4.473797634595">
        <ele>2.8</ele>
        <time>2019-05-01T19:06:40Z</time>
      </trkpt>
      <trkpt lat="51.234295437515" lon="4.473899390861">
        <ele>2.4</ele>
        <time>2019-05-01T19:06:55Z</time>
      </trkpt>
      <trkpt lat="51.234131403732" lon="4.474077338598">
        <ele>1</ele>
        <time>2019-05-01T19:07:19Z</time>
      </trkpt>
      <trkpt lat="51.233971309442" lon="4.474220082355">
        <ele>0.8</ele>
        <time>2019-05-01T19:07:37Z</time>
      </trkpt>
      <trkpt lat="51.233626645714" lon="4.474602967547">
        <ele>0</ele>
        <time>2019-05-01T19:08:31Z</time>
      </trkpt>
      <trkpt lat="51.233326741332" lon="4.475022565461">
        <ele>0.2</ele>
        <time>2019-05-01T19:09:31Z</time>
      </trkpt>
      <trkpt lat="51.232970510582" lon="4.475455909691">
        <ele>0</ele>
        <time>2019-05-01T19:10:23Z</time>
      </trkpt>
      <trkpt lat="51.232683933421" lon="4.475768219285">
        <ele>2.2</ele>
        <time>2019-05-01T19:11:02Z</time>
      </trkpt>
      <trkpt lat="51.232352680733" lon="4.475342167308">
        <ele>6.6</ele>
        <time>2019-05-01T19:12:09Z</time>
      </trkpt>
      <trkpt lat="51.232340862254" lon="4.475302185645">
        <ele>6.4</ele>
        <time>2019-05-01T19:12:11Z</time>
      </trkpt>
      <trkpt lat="51.232140199568" lon="4.474695671361">
        <ele>12.2</ele>
        <time>2019-05-01T19:12:59Z</time>
      </trkpt>
      <trkpt lat="51.231860830841" lon="4.474136179536">
        <ele>6.8</ele>
        <time>2019-05-01T19:13:48Z</time>
      </trkpt>
      <trkpt lat="51.23159688481" lon="4.473902073069">
        <ele>5.6</ele>
        <time>2019-05-01T19:14:47Z</time>
      </trkpt>
      <trkpt lat="51.231514574552" lon="4.473794365654">
        <ele>3.2</ele>
        <time>2019-05-01T19:15:11Z</time>
      </trkpt>
      <trkpt lat="51.231363784171" lon="4.473300001192">
        <ele>1.6</ele>
        <time>2019-05-01T19:16:36Z</time>
      </trkpt>
      <trkpt lat="51.231139903622" lon="4.472710334527">
        <ele>4</ele>
        <time>2019-05-01T19:18:01Z</time>
      </trkpt>
      <trkpt lat="51.231004703575" lon="4.472104574614">
        <ele>0</ele>
        <time>2019-05-01T19:18:59Z</time>
      </trkpt>
      <trkpt lat="51.23091375996" lon="4.471941965754">
        <ele>0</ele>
        <time>2019-05-01T19:19:16Z</time>
      </trkpt>
      <trkpt lat="51.230653501965" lon="4.471343581913">
        <ele>0</ele>
        <time>2019-05-01T19:20:01Z</time>
      </trkpt>
      <trkpt lat="51.230565659653" lon="4.47118876822">
        <ele>0</ele>
        <time>2019-05-01T19:20:23Z</time>
      </trkpt>
      <trkpt lat="51.230553673536" lon="4.471159263932">
        <ele>0</ele>
        <time>2019-05-01T19:20:25Z</time>
      </trkpt>
      <trkpt lat="51.230485780146" lon="4.470825915769">
        <ele>0</ele>
        <time>2019-05-01T19:20:42Z</time>
      </trkpt>
      <trkpt lat="51.230421910068" lon="4.470232225792">
        <ele>0</ele>
        <time>2019-05-01T19:21:47Z</time>
      </trkpt>
      <trkpt lat="51.230387795735" lon="4.470094427356">
        <ele>0</ele>
        <time>2019-05-01T19:21:55Z</time>
      </trkpt>
      <trkpt lat="51.230310430798" lon="4.470001136809">
        <ele>0</ele>
        <time>2019-05-01T19:22:15Z</time>
      </trkpt>
      <trkpt lat="51.230275645913" lon="4.469959646404">
        <ele>0</ele>
        <time>2019-05-01T19:22:19Z</time>
      </trkpt>
      <trkpt lat="51.230148911585" lon="4.469799384476">
        <ele>0</ele>
        <time>2019-05-01T19:22:41Z</time>
      </trkpt>
      <trkpt lat="51.230084706231" lon="4.469847161306">
        <ele>0</ele>
        <time>2019-05-01T19:22:51Z</time>
      </trkpt>
      <trkpt lat="51.229718333382" lon="4.470100043229">
        <ele>0</ele>
        <time>2019-05-01T19:23:29Z</time>
      </trkpt>
      <trkpt lat="51.229694696424" lon="4.470125272748">
        <ele>0</ele>
        <time>2019-05-01T19:23:32Z</time>
      </trkpt>
      <trkpt lat="51.22939244511" lon="4.470175983243">
        <ele>0</ele>
        <time>2019-05-01T19:23:58Z</time>
      </trkpt>
      <trkpt lat="51.229344249185" lon="4.470192076491">
        <ele>0</ele>
        <time>2019-05-01T19:24:09Z</time>
      </trkpt>
      <trkpt lat="51.229067897942" lon="4.470164751497">
        <ele>0</ele>
        <time>2019-05-01T19:24:34Z</time>
      </trkpt>
      <trkpt lat="51.228992293204" lon="4.470165170592">
        <ele>0.6</ele>
        <time>2019-05-01T19:24:42Z</time>
      </trkpt>
      <trkpt lat="51.228937056483" lon="4.470157626882">
        <ele>1.6</ele>
        <time>2019-05-01T19:24:49Z</time>
      </trkpt>
      <trkpt lat="51.228789199767" lon="4.470042711033">
        <ele>0</ele>
        <time>2019-05-01T19:25:12Z</time>
      </trkpt>
      <trkpt lat="51.228779057668" lon="4.469863170735">
        <ele>0</ele>
        <time>2019-05-01T19:25:27Z</time>
      </trkpt>
      <trkpt lat="51.228687275863" lon="4.469831235696">
        <ele>0</ele>
        <time>2019-05-01T19:25:43Z</time>
      </trkpt>
      <trkpt lat="51.228592979488" lon="4.469745824135">
        <ele>2.4</ele>
        <time>2019-05-01T19:26:32Z</time>
      </trkpt>
      <trkpt lat="51.228421234357" lon="4.46935732307">
        <ele>0</ele>
        <time>2019-05-01T19:27:12Z</time>
      </trkpt>
      <trkpt lat="51.228352502777" lon="4.469196642047">
        <ele>0</ele>
        <time>2019-05-01T19:27:25Z</time>
      </trkpt>
      <trkpt lat="51.228321154471" lon="4.469075775049">
        <ele>0</ele>
        <time>2019-05-01T19:27:35Z</time>
      </trkpt>
      <trkpt lat="51.228243454258" lon="4.468854995803">
        <ele>0</ele>
        <time>2019-05-01T19:27:58Z</time>
      </trkpt>
      <trkpt lat="51.228061986123" lon="4.468209673322">
        <ele>0</ele>
        <time>2019-05-01T19:28:44Z</time>
      </trkpt>
      <trkpt lat="51.227907256249" lon="4.467903314877">
        <ele>0</ele>
        <time>2019-05-01T19:29:15Z</time>
      </trkpt>
      <trkpt lat="51.227837099746" lon="4.467668118763">
        <ele>8.6</ele>
        <time>2019-05-01T19:29:49Z</time>
      </trkpt>
      <trkpt lat="51.227863167455" lon="4.467172413197">
        <ele>1.8</ele>
        <time>2019-05-01T19:30:23Z</time>
      </trkpt>
      <trkpt lat="51.227913794131" lon="4.466966972828">
        <ele>0</ele>
        <time>2019-05-01T19:30:54Z</time>
      </trkpt>
      <trkpt lat="51.22788537949" lon="4.466906790786">
        <ele>0</ele>
        <time>2019-05-01T19:31:01Z</time>
      </trkpt>
      <trkpt lat="51.227897449426" lon="4.466794892421">
        <ele>0</ele>
        <time>2019-05-01T19:31:12Z</time>
      </trkpt>
      <trkpt lat="51.227854869374" lon="4.466576795383">
        <ele>4</ele>
        <time>2019-05-01T19:31:35Z</time>
      </trkpt>
      <trkpt lat="51.227844894913" lon="4.466464226466">
        <ele>1.4</ele>
        <time>2019-05-01T19:31:42Z</time>
      </trkpt>
      <trkpt lat="51.22785688103" lon="4.466320141605">
        <ele>0</ele>
        <time>2019-05-01T19:31:53Z</time>
      </trkpt>
      <trkpt lat="51.227823185792" lon="4.466229952361">
        <ele>0</ele>
        <time>2019-05-01T19:32:09Z</time>
      </trkpt>
      <trkpt lat="51.227817905195" lon="4.46618812668">
        <ele>0</ele>
        <time>2019-05-01T19:32:12Z</time>
      </trkpt>
      <trkpt lat="51.22788873225" lon="4.465688649259">
        <ele>0</ele>
        <time>2019-05-01T19:32:52Z</time>
      </trkpt>
      <trkpt lat="51.227902897661" lon="4.465036956534">
        <ele>2</ele>
        <time>2019-05-01T19:33:40Z</time>
      </trkpt>
      <trkpt lat="51.227815390625" lon="4.46433321221">
        <ele>5.8</ele>
        <time>2019-05-01T19:34:28Z</time>
      </trkpt>
      <trkpt lat="51.227829388398" lon="4.46426950977">
        <ele>6.8</ele>
        <time>2019-05-01T19:34:32Z</time>
      </trkpt>
      <trkpt lat="51.227803069232" lon="4.463929539906">
        <ele>2.8</ele>
        <time>2019-05-01T19:34:54Z</time>
      </trkpt>
      <trkpt lat="51.227691673781" lon="4.463242559382">
        <ele>0</ele>
        <time>2019-05-01T19:35:40Z</time>
      </trkpt>
      <trkpt lat="51.227713382902" lon="4.463114148674">
        <ele>0</ele>
        <time>2019-05-01T19:35:48Z</time>
      </trkpt>
      <trkpt lat="51.227761243551" lon="4.462999232825">
        <ele>0</ele>
        <time>2019-05-01T19:35:56Z</time>
      </trkpt>
      <trkpt lat="51.227815642082" lon="4.462851962842">
        <ele>0</ele>
        <time>2019-05-01T19:36:07Z</time>
      </trkpt>
      <trkpt lat="51.227813462788" lon="4.462789014773">
        <ele>0.6</ele>
        <time>2019-05-01T19:36:15Z</time>
      </trkpt>
      <trkpt lat="51.227861574894" lon="4.462301104374">
        <ele>2.6</ele>
        <time>2019-05-01T19:37:01Z</time>
      </trkpt>
      <trkpt lat="51.227853695908" lon="4.462031207194">
        <ele>4.6</ele>
        <time>2019-05-01T19:37:24Z</time>
      </trkpt>
      <trkpt lat="51.227877500504" lon="4.462014359575">
        <ele>4.4</ele>
        <time>2019-05-01T19:37:28Z</time>
      </trkpt>
      <trkpt lat="51.227817569919" lon="4.461803722428">
        <ele>6.4</ele>
        <time>2019-05-01T19:37:48Z</time>
      </trkpt>
      <trkpt lat="51.227803404508" lon="4.461627953985">
        <ele>4.2</ele>
        <time>2019-05-01T19:38:00Z</time>
      </trkpt>
      <trkpt lat="51.2278007223" lon="4.461593504376">
        <ele>3.4</ele>
        <time>2019-05-01T19:38:02Z</time>
      </trkpt>
      <trkpt lat="51.227796112255" lon="4.461462914374">
        <ele>0</ele>
        <time>2019-05-01T19:38:14Z</time>
      </trkpt>
      <trkpt lat="51.227818911023" lon="4.460762187534">
        <ele>1</ele>
        <time>2019-05-01T19:38:59Z</time>
      </trkpt>
      <trkpt lat="51.22780826601" lon="4.46071977512">
        <ele>2.4</ele>
        <time>2019-05-01T19:39:02Z</time>
      </trkpt>
      <trkpt lat="51.22781329515" lon="4.460698401275">
        <ele>2</ele>
        <time>2019-05-01T19:39:04Z</time>
      </trkpt>
      <trkpt lat="51.227843637628" lon="4.460664203123">
        <ele>1.6</ele>
        <time>2019-05-01T19:39:10Z</time>
      </trkpt>
      <trkpt lat="51.227890240992" lon="4.460479968961">
        <ele>3.4</ele>
        <time>2019-05-01T19:39:27Z</time>
      </trkpt>
      <trkpt lat="51.228254099271" lon="4.46024787415">
        <ele>26.2</ele>
        <time>2019-05-01T19:40:47Z</time>
      </trkpt>
      <trkpt lat="51.22837739702" lon="4.4596569502">
        <ele>0</ele>
        <time>2019-05-01T19:41:21Z</time>
      </trkpt>
      <trkpt lat="51.228468675911" lon="4.459436003316">
        <ele>0</ele>
        <time>2019-05-01T19:41:48Z</time>
      </trkpt>
      <trkpt lat="51.228525924288" lon="4.458845498461">
        <ele>0</ele>
        <time>2019-05-01T19:42:25Z</time>
      </trkpt>
      <trkpt lat="51.228514524904" lon="4.458768133524">
        <ele>0</ele>
        <time>2019-05-01T19:42:31Z</time>
      </trkpt>
      <trkpt lat="51.228610078564" lon="4.458179975601">
        <ele>2.4</ele>
        <time>2019-05-01T19:43:17Z</time>
      </trkpt>
      <trkpt lat="51.228754666339" lon="4.458135886807">
        <ele>9.2</ele>
        <time>2019-05-01T19:43:36Z</time>
      </trkpt>
      <trkpt lat="51.229216676667" lon="4.458090121633">
        <ele>3.4</ele>
        <time>2019-05-01T19:44:22Z</time>
      </trkpt>
      <trkpt lat="51.229618504953" lon="4.457940001804">
        <ele>5</ele>
        <time>2019-05-01T19:45:05Z</time>
      </trkpt>
      <trkpt lat="51.229728894576" lon="4.457972523576">
        <ele>5.8</ele>
        <time>2019-05-01T19:45:19Z</time>
      </trkpt>
      <trkpt lat="51.229710873491" lon="4.458009403936">
        <ele>6.6</ele>
        <time>2019-05-01T19:45:22Z</time>
      </trkpt>
      <trkpt lat="51.229651194363" lon="4.458056761671">
        <ele>6.4</ele>
        <time>2019-05-01T19:45:33Z</time>
      </trkpt>
    </trkseg>
  </trk>
</gpx>